sensor_id;sensor_type;location;lat;lon;timestamp;temperature;humidity
45837;DHT22;31548;51.420;-0.040;2022-12-19T00:00:11;9.50;99.90
45837;DHT22;31548;51.420;-0.040;2022-12-19T00:02:41;9.40;99.90
45837;DHT22;31548;51.420;-0.040;2022-12-19T00:05:09;9.50;99.90
45837;DHT22;31548;51.420;-0.040;2022-12-19T00:07:36;9.50;99.90
45837;DHT22;31548;51.420;-0.040;2022-12-19T00:10:04;9.60;99.90
45837;DHT22;31548;51.420;-0.040;2022-12-19T00:12:32;9.60;99.90
45837;DHT22;31548;51.420;-0.040;2022-12-19T00:14:59;9.60;99.90
45837;DHT22;31548;51.420;-0.040;2022-12-19T00:17:27;9.60;99.90
45837;DHT22;31548;51.420;-0.040;2022-12-19T00:19:55;9.70;99.90
45837;DHT22;31548;51.420;-0.040;2022-12-19T00:22:22;9.70;99.90
45837;DHT22;31548;51.420;-0.040;2022-12-19T00:24:49;9.70;99.90
45837;DHT22;31548;51.420;-0.040;2022-12-19T00:27:16;9.90;99.90
45837;DHT22;31548;51.420;-0.040;2022-12-19T00:29:45;9.90;99.90
45837;DHT22;31548;51.420;-0.040;2022-12-19T00:32:14;10.00;99.90
45837;DHT22;31548;51.420;-0.040;2022-12-19T00:34:42;10.00;99.90
45837;DHT22;31548;51.420;-0.040;2022-12-19T00:37:10;10.00;99.90
45837;DHT22;31548;51.420;-0.040;2022-12-19T00:39:37;10.00;99.90
45837;DHT22;31548;51.420;-0.040;2022-12-19T00:42:05;10.10;99.90
45837;DHT22;31548;51.420;-0.040;2022-12-19T00:44:32;10.10;99.90
45837;DHT22;31548;51.420;-0.040;2022-12-19T00:46:59;10.20;99.90
45837;DHT22;31548;51.420;-0.040;2022-12-19T00:49:26;10.20;99.90
45837;DHT22;31548;51.420;-0.040;2022-12-19T00:51:54;10.40;99.90
45837;DHT22;31548;51.420;-0.040;2022-12-19T00:54:23;10.30;99.90
45837;DHT22;31548;51.420;-0.040;2022-12-19T00:56:51;10.30;99.90
45837;DHT22;31548;51.420;-0.040;2022-12-19T00:59:18;10.30;99.90
45837;DHT22;31548;51.420;-0.040;2022-12-19T01:01:55;10.40;99.90
45837;DHT22;31548;51.420;-0.040;2022-12-19T01:04:23;10.40;99.90
45837;DHT22;31548;51.420;-0.040;2022-12-19T01:06:56;10.40;99.90
45837;DHT22;31548;51.420;-0.040;2022-12-19T01:09:33;10.50;99.90
45837;DHT22;31548;51.420;-0.040;2022-12-19T01:12:01;10.50;99.90
45837;DHT22;31548;51.420;-0.040;2022-12-19T01:14:53;10.50;99.90
45837;DHT22;31548;51.420;-0.040;2022-12-19T01:17:23;10.60;99.90
45837;DHT22;31548;51.420;-0.040;2022-12-19T01:19:52;10.60;99.90
45837;DHT22;31548;51.420;-0.040;2022-12-19T01:22:19;10.60;99.90
45837;DHT22;31548;51.420;-0.040;2022-12-19T01:24:46;10.60;99.90
45837;DHT22;31548;51.420;-0.040;2022-12-19T01:27:14;10.70;99.90
45837;DHT22;31548;51.420;-0.040;2022-12-19T01:29:41;10.60;99.90
45837;DHT22;31548;51.420;-0.040;2022-12-19T01:32:20;10.70;99.90
45837;DHT22;31548;51.420;-0.040;2022-12-19T01:34:47;10.70;99.90
45837;DHT22;31548;51.420;-0.040;2022-12-19T01:37:14;10.70;99.90
45837;DHT22;31548;51.420;-0.040;2022-12-19T01:39:41;10.80;99.90
45837;DHT22;31548;51.420;-0.040;2022-12-19T01:42:18;10.80;99.90
45837;DHT22;31548;51.420;-0.040;2022-12-19T01:50:18;10.90;99.90
45837;DHT22;31548;51.420;-0.040;2022-12-19T01:52:46;10.90;99.90
45837;DHT22;31548;51.420;-0.040;2022-12-19T01:55:14;10.90;99.90
45837;DHT22;31548;51.420;-0.040;2022-12-19T01:57:42;11.00;99.90
45837;DHT22;31548;51.420;-0.040;2022-12-19T02:00:09;11.00;99.90
45837;DHT22;31548;51.420;-0.040;2022-12-19T02:02:47;11.10;99.90
45837;DHT22;31548;51.420;-0.040;2022-12-19T02:05:17;11.00;99.90
45837;DHT22;31548;51.420;-0.040;2022-12-19T02:07:45;11.10;99.90
45837;DHT22;31548;51.420;-0.040;2022-12-19T02:10:12;11.10;99.90
45837;DHT22;31548;51.420;-0.040;2022-12-19T02:12:42;11.20;99.90
45837;DHT22;31548;51.420;-0.040;2022-12-19T02:15:13;11.10;99.90
45837;DHT22;31548;51.420;-0.040;2022-12-19T02:18:04;11.10;99.90
45837;DHT22;31548;51.420;-0.040;2022-12-19T02:20:50;11.10;99.90
45837;DHT22;31548;51.420;-0.040;2022-12-19T02:34:42;11.20;99.90
45837;DHT22;31548;51.420;-0.040;2022-12-19T02:37:29;11.30;99.90
45837;DHT22;31548;51.420;-0.040;2022-12-19T02:40:30;11.30;99.90
45837;DHT22;31548;51.420;-0.040;2022-12-19T02:43:00;11.30;99.90
45837;DHT22;31548;51.420;-0.040;2022-12-19T02:45:33;11.40;99.90
45837;DHT22;31548;51.420;-0.040;2022-12-19T02:48:02;11.30;99.90
45837;DHT22;31548;51.420;-0.040;2022-12-19T02:50:41;11.30;99.90
45837;DHT22;31548;51.420;-0.040;2022-12-19T02:53:13;11.40;99.90
45837;DHT22;31548;51.420;-0.040;2022-12-19T02:55:55;11.40;99.90
45837;DHT22;31548;51.420;-0.040;2022-12-19T03:01:51;11.40;99.90
45837;DHT22;31548;51.420;-0.040;2022-12-19T03:07:32;11.40;99.90
45837;DHT22;31548;51.420;-0.040;2022-12-19T03:10:24;11.40;99.90
45837;DHT22;31548;51.420;-0.040;2022-12-19T03:13:00;11.30;99.90
45837;DHT22;31548;51.420;-0.040;2022-12-19T03:15:30;11.40;99.90
45837;DHT22;31548;51.420;-0.040;2022-12-19T03:17:59;11.40;99.90
45837;DHT22;31548;51.420;-0.040;2022-12-19T03:23:31;11.40;99.90
45837;DHT22;31548;51.420;-0.040;2022-12-19T03:26:02;11.30;99.90
45837;DHT22;31548;51.420;-0.040;2022-12-19T03:31:45;11.40;99.90
45837;DHT22;31548;51.420;-0.040;2022-12-19T03:34:18;11.40;99.90
45837;DHT22;31548;51.420;-0.040;2022-12-19T03:36:55;11.50;99.90
45837;DHT22;31548;51.420;-0.040;2022-12-19T03:39:24;11.50;99.90
45837;DHT22;31548;51.420;-0.040;2022-12-19T03:41:53;11.50;99.90
45837;DHT22;31548;51.420;-0.040;2022-12-19T03:44:41;11.50;99.90
45837;DHT22;31548;51.420;-0.040;2022-12-19T03:47:15;11.50;99.90
45837;DHT22;31548;51.420;-0.040;2022-12-19T03:49:45;11.50;99.90
45837;DHT22;31548;51.420;-0.040;2022-12-19T03:55:26;11.60;99.90
45837;DHT22;31548;51.420;-0.040;2022-12-19T03:58:01;11.50;99.90
45837;DHT22;31548;51.420;-0.040;2022-12-19T04:00:34;11.50;99.90
45837;DHT22;31548;51.420;-0.040;2022-12-19T04:03:04;11.50;99.90
45837;DHT22;31548;51.420;-0.040;2022-12-19T04:05:33;11.50;99.90
45837;DHT22;31548;51.420;-0.040;2022-12-19T04:08:04;11.50;99.90
45837;DHT22;31548;51.420;-0.040;2022-12-19T04:10:40;11.50;99.90
45837;DHT22;31548;51.420;-0.040;2022-12-19T04:13:22;11.50;99.90
45837;DHT22;31548;51.420;-0.040;2022-12-19T04:18:32;11.60;99.90
45837;DHT22;31548;51.420;-0.040;2022-12-19T04:21:13;11.60;99.90
45837;DHT22;31548;51.420;-0.040;2022-12-19T04:23:48;11.60;99.90
45837;DHT22;31548;51.420;-0.040;2022-12-19T04:26:17;11.50;99.90
45837;DHT22;31548;51.420;-0.040;2022-12-19T04:28:49;11.60;99.90
45837;DHT22;31548;51.420;-0.040;2022-12-19T04:31:19;11.60;99.90
45837;DHT22;31548;51.420;-0.040;2022-12-19T04:33:46;11.60;99.90
45837;DHT22;31548;51.420;-0.040;2022-12-19T04:36:13;11.60;99.90
45837;DHT22;31548;51.420;-0.040;2022-12-19T04:38:41;11.60;99.90
45837;DHT22;31548;51.420;-0.040;2022-12-19T04:41:08;11.70;99.90
45837;DHT22;31548;51.420;-0.040;2022-12-19T04:43:35;11.60;99.90
45837;DHT22;31548;51.420;-0.040;2022-12-19T04:46:03;11.70;99.90
45837;DHT22;31548;51.420;-0.040;2022-12-19T04:48:30;11.70;99.90
45837;DHT22;31548;51.420;-0.040;2022-12-19T04:50:57;11.70;99.90
45837;DHT22;31548;51.420;-0.040;2022-12-19T04:53:24;11.60;99.90
45837;DHT22;31548;51.420;-0.040;2022-12-19T04:56:02;11.60;99.90
45837;DHT22;31548;51.420;-0.040;2022-12-19T04:58:30;11.70;99.90
45837;DHT22;31548;51.420;-0.040;2022-12-19T05:01:06;11.60;99.90
45837;DHT22;31548;51.420;-0.040;2022-12-19T05:03:34;11.70;99.90
45837;DHT22;31548;51.420;-0.040;2022-12-19T05:06:04;11.70;99.90
45837;DHT22;31548;51.420;-0.040;2022-12-19T05:08:32;11.70;99.90
45837;DHT22;31548;51.420;-0.040;2022-12-19T05:11:00;11.70;99.90
45837;DHT22;31548;51.420;-0.040;2022-12-19T05:13:28;11.70;99.90
45837;DHT22;31548;51.420;-0.040;2022-12-19T05:16:03;11.70;99.90
45837;DHT22;31548;51.420;-0.040;2022-12-19T05:18:31;11.70;99.90
45837;DHT22;31548;51.420;-0.040;2022-12-19T05:20:58;11.80;99.90
45837;DHT22;31548;51.420;-0.040;2022-12-19T05:23:26;11.70;99.90
45837;DHT22;31548;51.420;-0.040;2022-12-19T05:25:56;11.80;99.90
45837;DHT22;31548;51.420;-0.040;2022-12-19T05:28:24;11.80;99.90
45837;DHT22;31548;51.420;-0.040;2022-12-19T05:30:51;11.80;99.90
45837;DHT22;31548;51.420;-0.040;2022-12-19T05:33:18;11.80;99.90
45837;DHT22;31548;51.420;-0.040;2022-12-19T05:35:46;11.80;99.90
45837;DHT22;31548;51.420;-0.040;2022-12-19T05:38:15;11.80;99.90
45837;DHT22;31548;51.420;-0.040;2022-12-19T05:40:43;11.80;99.90
45837;DHT22;31548;51.420;-0.040;2022-12-19T05:43:11;11.80;99.90
45837;DHT22;31548;51.420;-0.040;2022-12-19T05:45:39;11.80;99.90
45837;DHT22;31548;51.420;-0.040;2022-12-19T05:48:06;11.80;99.90
45837;DHT22;31548;51.420;-0.040;2022-12-19T05:50:35;11.80;99.90
45837;DHT22;31548;51.420;-0.040;2022-12-19T05:53:08;11.80;99.90
45837;DHT22;31548;51.420;-0.040;2022-12-19T05:55:35;11.80;99.90
45837;DHT22;31548;51.420;-0.040;2022-12-19T05:58:04;11.80;99.90
45837;DHT22;31548;51.420;-0.040;2022-12-19T06:00:31;11.80;99.90
45837;DHT22;31548;51.420;-0.040;2022-12-19T06:02:58;11.80;99.90
45837;DHT22;31548;51.420;-0.040;2022-12-19T06:05:26;11.90;99.90
45837;DHT22;31548;51.420;-0.040;2022-12-19T06:07:54;11.90;99.90
45837;DHT22;31548;51.420;-0.040;2022-12-19T06:10:26;11.90;99.90
45837;DHT22;31548;51.420;-0.040;2022-12-19T06:12:55;11.90;99.90
45837;DHT22;31548;51.420;-0.040;2022-12-19T06:15:34;11.90;99.90
45837;DHT22;31548;51.420;-0.040;2022-12-19T06:18:02;11.90;99.90
45837;DHT22;31548;51.420;-0.040;2022-12-19T06:20:34;11.90;99.90
45837;DHT22;31548;51.420;-0.040;2022-12-19T06:23:01;11.90;99.90
45837;DHT22;31548;51.420;-0.040;2022-12-19T06:25:29;11.90;99.90
45837;DHT22;31548;51.420;-0.040;2022-12-19T06:27:56;11.90;99.90
45837;DHT22;31548;51.420;-0.040;2022-12-19T06:30:23;11.90;99.90
45837;DHT22;31548;51.420;-0.040;2022-12-19T06:32:51;11.90;99.90
45837;DHT22;31548;51.420;-0.040;2022-12-19T06:35:18;11.90;99.90
45837;DHT22;31548;51.420;-0.040;2022-12-19T06:37:47;12.00;99.90
45837;DHT22;31548;51.420;-0.040;2022-12-19T06:40:14;11.90;99.90
45837;DHT22;31548;51.420;-0.040;2022-12-19T06:43:01;12.00;99.90
45837;DHT22;31548;51.420;-0.040;2022-12-19T06:45:30;12.00;99.90
45837;DHT22;31548;51.420;-0.040;2022-12-19T06:47:57;12.00;99.90
45837;DHT22;31548;51.420;-0.040;2022-12-19T06:50:25;12.00;99.90
45837;DHT22;31548;51.420;-0.040;2022-12-19T06:52:53;12.00;99.90
45837;DHT22;31548;51.420;-0.040;2022-12-19T06:55:20;12.00;99.90
45837;DHT22;31548;51.420;-0.040;2022-12-19T06:57:48;11.90;99.90
45837;DHT22;31548;51.420;-0.040;2022-12-19T07:00:15;11.90;99.90
45837;DHT22;31548;51.420;-0.040;2022-12-19T07:02:44;12.00;99.90
45837;DHT22;31548;51.420;-0.040;2022-12-19T07:05:15;12.00;99.90
45837;DHT22;31548;51.420;-0.040;2022-12-19T07:07:42;12.00;99.90
45837;DHT22;31548;51.420;-0.040;2022-12-19T07:10:10;12.00;99.90
45837;DHT22;31548;51.420;-0.040;2022-12-19T07:12:37;12.00;99.90
45837;DHT22;31548;51.420;-0.040;2022-12-19T07:15:05;12.00;99.90
45837;DHT22;31548;51.420;-0.040;2022-12-19T07:17:32;12.10;99.90
45837;DHT22;31548;51.420;-0.040;2022-12-19T07:20:01;12.00;99.90
45837;DHT22;31548;51.420;-0.040;2022-12-19T07:22:32;12.00;99.90
45837;DHT22;31548;51.420;-0.040;2022-12-19T07:25:02;12.10;99.90
45837;DHT22;31548;51.420;-0.040;2022-12-19T07:27:30;12.10;99.90
45837;DHT22;31548;51.420;-0.040;2022-12-19T07:30:04;12.10;99.90
45837;DHT22;31548;51.420;-0.040;2022-12-19T07:32:32;12.10;99.90
45837;DHT22;31548;51.420;-0.040;2022-12-19T07:34:59;12.10;99.90
45837;DHT22;31548;51.420;-0.040;2022-12-19T07:37:27;12.20;99.90
45837;DHT22;31548;51.420;-0.040;2022-12-19T07:39:54;12.10;99.90
45837;DHT22;31548;51.420;-0.040;2022-12-19T07:42:21;12.20;99.90
45837;DHT22;31548;51.420;-0.040;2022-12-19T07:44:51;12.20;99.90
45837;DHT22;31548;51.420;-0.040;2022-12-19T07:47:19;12.10;99.90
45837;DHT22;31548;51.420;-0.040;2022-12-19T07:49:46;12.10;99.90
45837;DHT22;31548;51.420;-0.040;2022-12-19T07:52:13;12.20;99.90
45837;DHT22;31548;51.420;-0.040;2022-12-19T07:54:40;12.10;99.90
45837;DHT22;31548;51.420;-0.040;2022-12-19T07:57:07;12.10;99.90
45837;DHT22;31548;51.420;-0.040;2022-12-19T07:59:34;12.10;99.90
45837;DHT22;31548;51.420;-0.040;2022-12-19T08:02:05;12.00;99.90
45837;DHT22;31548;51.420;-0.040;2022-12-19T08:04:33;12.10;99.90
45837;DHT22;31548;51.420;-0.040;2022-12-19T08:07:01;12.10;99.90
45837;DHT22;31548;51.420;-0.040;2022-12-19T08:09:28;12.10;99.90
45837;DHT22;31548;51.420;-0.040;2022-12-19T08:11:57;12.00;99.90
45837;DHT22;31548;51.420;-0.040;2022-12-19T08:14:24;12.00;99.90
45837;DHT22;31548;51.420;-0.040;2022-12-19T08:16:52;12.10;99.90
45837;DHT22;31548;51.420;-0.040;2022-12-19T08:19:39;12.00;99.90
45837;DHT22;31548;51.420;-0.040;2022-12-19T08:22:06;12.10;99.90
45837;DHT22;31548;51.420;-0.040;2022-12-19T08:24:33;12.10;99.90
45837;DHT22;31548;51.420;-0.040;2022-12-19T08:27:01;12.10;99.90
45837;DHT22;31548;51.420;-0.040;2022-12-19T08:29:29;12.00;99.90
45837;DHT22;31548;51.420;-0.040;2022-12-19T08:31:56;12.00;99.90
45837;DHT22;31548;51.420;-0.040;2022-12-19T08:34:23;12.00;99.90
45837;DHT22;31548;51.420;-0.040;2022-12-19T08:36:50;12.00;99.90
45837;DHT22;31548;51.420;-0.040;2022-12-19T08:39:17;12.00;99.90
45837;DHT22;31548;51.420;-0.040;2022-12-19T08:41:44;12.00;99.90
45837;DHT22;31548;51.420;-0.040;2022-12-19T08:44:12;12.00;99.90
45837;DHT22;31548;51.420;-0.040;2022-12-19T08:46:39;12.00;99.90
45837;DHT22;31548;51.420;-0.040;2022-12-19T08:49:14;12.00;99.90
45837;DHT22;31548;51.420;-0.040;2022-12-19T08:51:41;12.00;99.90
45837;DHT22;31548;51.420;-0.040;2022-12-19T08:54:08;12.10;99.90
45837;DHT22;31548;51.420;-0.040;2022-12-19T08:56:38;12.10;99.90
45837;DHT22;31548;51.420;-0.040;2022-12-19T08:59:13;12.10;99.90
45837;DHT22;31548;51.420;-0.040;2022-12-19T09:01:48;12.10;99.90
45837;DHT22;31548;51.420;-0.040;2022-12-19T09:04:15;12.10;99.90
45837;DHT22;31548;51.420;-0.040;2022-12-19T09:07:02;12.10;99.90
45837;DHT22;31548;51.420;-0.040;2022-12-19T09:09:30;12.10;99.90
45837;DHT22;31548;51.420;-0.040;2022-12-19T09:11:57;12.10;99.90
45837;DHT22;31548;51.420;-0.040;2022-12-19T09:14:24;12.10;99.90
45837;DHT22;31548;51.420;-0.040;2022-12-19T09:16:51;12.20;99.90
45837;DHT22;31548;51.420;-0.040;2022-12-19T09:19:18;12.20;99.90
45837;DHT22;31548;51.420;-0.040;2022-12-19T09:21:45;12.20;99.90
45837;DHT22;31548;51.420;-0.040;2022-12-19T09:24:13;12.20;99.90
45837;DHT22;31548;51.420;-0.040;2022-12-19T09:26:40;12.30;99.90
45837;DHT22;31548;51.420;-0.040;2022-12-19T09:29:08;12.20;99.90
45837;DHT22;31548;51.420;-0.040;2022-12-19T09:31:47;12.30;99.90
45837;DHT22;31548;51.420;-0.040;2022-12-19T09:34:26;12.30;99.90
45837;DHT22;31548;51.420;-0.040;2022-12-19T09:37:05;12.30;99.90
45837;DHT22;31548;51.420;-0.040;2022-12-19T09:39:33;12.30;99.90
45837;DHT22;31548;51.420;-0.040;2022-12-19T09:47:32;12.30;99.90
45837;DHT22;31548;51.420;-0.040;2022-12-19T09:50:01;12.30;99.90
45837;DHT22;31548;51.420;-0.040;2022-12-19T09:52:41;12.20;99.90
45837;DHT22;31548;51.420;-0.040;2022-12-19T09:55:31;12.20;99.90
45837;DHT22;31548;51.420;-0.040;2022-12-19T10:00:56;12.20;99.90
45837;DHT22;31548;51.420;-0.040;2022-12-19T10:03:39;12.20;99.90
45837;DHT22;31548;51.420;-0.040;2022-12-19T10:06:19;12.20;99.90
45837;DHT22;31548;51.420;-0.040;2022-12-19T10:09:14;12.20;99.90
45837;DHT22;31548;51.420;-0.040;2022-12-19T10:16:21;12.20;99.90
45837;DHT22;31548;51.420;-0.040;2022-12-19T10:21:08;12.20;99.90
45837;DHT22;31548;51.420;-0.040;2022-12-19T10:26:22;12.20;99.90
45837;DHT22;31548;51.420;-0.040;2022-12-19T10:29:23;12.20;99.90
45837;DHT22;31548;51.420;-0.040;2022-12-19T10:32:01;12.30;99.90
45837;DHT22;31548;51.420;-0.040;2022-12-19T10:34:38;12.30;99.90
45837;DHT22;31548;51.420;-0.040;2022-12-19T10:37:18;12.30;99.90
45837;DHT22;31548;51.420;-0.040;2022-12-19T10:46:35;12.30;99.90
45837;DHT22;31548;51.420;-0.040;2022-12-19T10:54:41;12.30;99.90
45837;DHT22;31548;51.420;-0.040;2022-12-19T11:00:01;12.20;99.90
45837;DHT22;31548;51.420;-0.040;2022-12-19T11:02:46;12.20;99.90
45837;DHT22;31548;51.420;-0.040;2022-12-19T11:05:28;12.20;99.90
45837;DHT22;31548;51.420;-0.040;2022-12-19T11:08:23;12.20;99.90
45837;DHT22;31548;51.420;-0.040;2022-12-19T11:13:51;12.10;99.90
45837;DHT22;31548;51.420;-0.040;2022-12-19T11:16:39;12.20;99.90
45837;DHT22;31548;51.420;-0.040;2022-12-19T11:19:32;12.10;99.90
45837;DHT22;31548;51.420;-0.040;2022-12-19T11:22:25;12.10;99.90
45837;DHT22;31548;51.420;-0.040;2022-12-19T11:25:21;12.10;99.90
45837;DHT22;31548;51.420;-0.040;2022-12-19T11:31:24;12.10;99.90
45837;DHT22;31548;51.420;-0.040;2022-12-19T11:34:20;12.10;99.90
45837;DHT22;31548;51.420;-0.040;2022-12-19T11:37:14;12.10;99.90
45837;DHT22;31548;51.420;-0.040;2022-12-19T11:39:47;12.10;99.90
45837;DHT22;31548;51.420;-0.040;2022-12-19T11:42:34;12.10;99.90
45837;DHT22;31548;51.420;-0.040;2022-12-19T11:48:11;12.10;99.90
45837;DHT22;31548;51.420;-0.040;2022-12-19T11:50:58;12.10;99.90
45837;DHT22;31548;51.420;-0.040;2022-12-19T11:56:11;12.10;99.90
45837;DHT22;31548;51.420;-0.040;2022-12-19T11:58:48;12.10;99.90
45837;DHT22;31548;51.420;-0.040;2022-12-19T12:06:52;12.20;99.90
45837;DHT22;31548;51.420;-0.040;2022-12-19T12:12:33;12.30;99.90
45837;DHT22;31548;51.420;-0.040;2022-12-19T12:34:33;12.40;99.90
45837;DHT22;31548;51.420;-0.040;2022-12-19T12:45:56;12.40;99.90
45837;DHT22;31548;51.420;-0.040;2022-12-19T12:48:36;12.40;99.90
45837;DHT22;31548;51.420;-0.040;2022-12-19T12:51:09;12.40;99.90
45837;DHT22;31548;51.420;-0.040;2022-12-19T12:53:41;12.40;99.90
45837;DHT22;31548;51.420;-0.040;2022-12-19T12:56:11;12.50;99.90
45837;DHT22;31548;51.420;-0.040;2022-12-19T12:59:05;12.50;99.90
45837;DHT22;31548;51.420;-0.040;2022-12-19T13:01:56;12.50;99.90
45837;DHT22;31548;51.420;-0.040;2022-12-19T13:04:34;12.50;99.90
45837;DHT22;31548;51.420;-0.040;2022-12-19T13:07:39;12.50;99.90
45837;DHT22;31548;51.420;-0.040;2022-12-19T13:10:27;12.50;99.90
45837;DHT22;31548;51.420;-0.040;2022-12-19T13:13:05;12.50;99.90
45837;DHT22;31548;51.420;-0.040;2022-12-19T13:15:43;12.50;99.90
45837;DHT22;31548;51.420;-0.040;2022-12-19T13:20:57;12.60;99.90
45837;DHT22;31548;51.420;-0.040;2022-12-19T13:25:53;12.60;99.90
45837;DHT22;31548;51.420;-0.040;2022-12-19T13:34:15;12.50;99.90
45837;DHT22;31548;51.420;-0.040;2022-12-19T13:36:51;12.50;99.90
45837;DHT22;31548;51.420;-0.040;2022-12-19T13:42:36;12.60;99.90
45837;DHT22;31548;51.420;-0.040;2022-12-19T13:45:39;12.60;99.90
45837;DHT22;31548;51.420;-0.040;2022-12-19T13:48:19;12.50;99.90
45837;DHT22;31548;51.420;-0.040;2022-12-19T13:50:48;12.60;99.90
45837;DHT22;31548;51.420;-0.040;2022-12-19T13:53:18;12.60;99.90
45837;DHT22;31548;51.420;-0.040;2022-12-19T13:55:48;12.60;99.90
45837;DHT22;31548;51.420;-0.040;2022-12-19T13:58:27;12.60;99.90
45837;DHT22;31548;51.420;-0.040;2022-12-19T14:01:00;12.60;99.90
45837;DHT22;31548;51.420;-0.040;2022-12-19T14:03:36;12.60;99.90
45837;DHT22;31548;51.420;-0.040;2022-12-19T14:06:18;12.70;99.90
45837;DHT22;31548;51.420;-0.040;2022-12-19T14:08:48;12.60;99.90
45837;DHT22;31548;51.420;-0.040;2022-12-19T14:11:39;12.70;99.90
45837;DHT22;31548;51.420;-0.040;2022-12-19T14:14:28;12.70;99.90
45837;DHT22;31548;51.420;-0.040;2022-12-19T14:17:32;12.60;99.90
45837;DHT22;31548;51.420;-0.040;2022-12-19T14:20:11;12.70;99.90
45837;DHT22;31548;51.420;-0.040;2022-12-19T14:23:03;12.70;99.90
45837;DHT22;31548;51.420;-0.040;2022-12-19T14:28:42;12.70;99.90
45837;DHT22;31548;51.420;-0.040;2022-12-19T14:31:21;12.60;99.90
45837;DHT22;31548;51.420;-0.040;2022-12-19T14:33:51;12.60;99.90
45837;DHT22;31548;51.420;-0.040;2022-12-19T14:36:39;12.50;99.90
45837;DHT22;31548;51.420;-0.040;2022-12-19T14:39:16;12.50;99.90
45837;DHT22;31548;51.420;-0.040;2022-12-19T14:42:02;12.50;99.90
45837;DHT22;31548;51.420;-0.040;2022-12-19T14:48:51;12.50;99.90
45837;DHT22;31548;51.420;-0.040;2022-12-19T14:51:39;12.50;99.90
45837;DHT22;31548;51.420;-0.040;2022-12-19T14:54:29;12.50;99.90
45837;DHT22;31548;51.420;-0.040;2022-12-19T14:57:20;12.60;99.90
45837;DHT22;31548;51.420;-0.040;2022-12-19T15:00:24;12.60;99.90
45837;DHT22;31548;51.420;-0.040;2022-12-19T15:03:25;12.50;99.90
45837;DHT22;31548;51.420;-0.040;2022-12-19T15:06:14;12.50;99.90
45837;DHT22;31548;51.420;-0.040;2022-12-19T15:09:06;12.50;99.90
45837;DHT22;31548;51.420;-0.040;2022-12-19T15:12:01;12.50;99.90
45837;DHT22;31548;51.420;-0.040;2022-12-19T15:17:46;12.60;99.90
45837;DHT22;31548;51.420;-0.040;2022-12-19T15:20:14;12.60;99.90
45837;DHT22;31548;51.420;-0.040;2022-12-19T15:22:42;12.60;99.90
45837;DHT22;31548;51.420;-0.040;2022-12-19T15:25:14;12.60;99.90
45837;DHT22;31548;51.420;-0.040;2022-12-19T15:28:16;12.60;99.90
45837;DHT22;31548;51.420;-0.040;2022-12-19T15:30:56;12.60;99.90
45837;DHT22;31548;51.420;-0.040;2022-12-19T15:33:25;12.50;99.90
45837;DHT22;31548;51.420;-0.040;2022-12-19T15:35:52;12.50;99.90
45837;DHT22;31548;51.420;-0.040;2022-12-19T15:38:19;12.50;99.90
45837;DHT22;31548;51.420;-0.040;2022-12-19T15:40:47;12.40;99.90
45837;DHT22;31548;51.420;-0.040;2022-12-19T15:43:20;12.40;99.90
45837;DHT22;31548;51.420;-0.040;2022-12-19T15:46:09;12.40;99.90
45837;DHT22;31548;51.420;-0.040;2022-12-19T15:48:45;12.40;99.90
45837;DHT22;31548;51.420;-0.040;2022-12-19T15:51:13;12.40;99.90
45837;DHT22;31548;51.420;-0.040;2022-12-19T15:53:41;12.40;99.90
45837;DHT22;31548;51.420;-0.040;2022-12-19T15:56:26;12.30;99.90
45837;DHT22;31548;51.420;-0.040;2022-12-19T15:58:56;12.40;99.90
45837;DHT22;31548;51.420;-0.040;2022-12-19T16:01:25;12.40;99.90
45837;DHT22;31548;51.420;-0.040;2022-12-19T16:03:55;12.40;99.90
45837;DHT22;31548;51.420;-0.040;2022-12-19T16:06:23;12.40;99.90
45837;DHT22;31548;51.420;-0.040;2022-12-19T16:08:50;12.40;99.90
45837;DHT22;31548;51.420;-0.040;2022-12-19T16:11:20;12.40;99.90
45837;DHT22;31548;51.420;-0.040;2022-12-19T16:13:53;12.40;99.90
45837;DHT22;31548;51.420;-0.040;2022-12-19T16:16:22;12.40;99.90
45837;DHT22;31548;51.420;-0.040;2022-12-19T16:18:50;12.40;99.90
45837;DHT22;31548;51.420;-0.040;2022-12-19T16:21:19;12.40;99.90
45837;DHT22;31548;51.420;-0.040;2022-12-19T16:23:46;12.40;99.90
45837;DHT22;31548;51.420;-0.040;2022-12-19T16:26:30;12.40;99.90
45837;DHT22;31548;51.420;-0.040;2022-12-19T16:28:58;12.40;99.90
45837;DHT22;31548;51.420;-0.040;2022-12-19T16:31:26;12.40;99.90
45837;DHT22;31548;51.420;-0.040;2022-12-19T16:33:54;12.40;99.90
45837;DHT22;31548;51.420;-0.040;2022-12-19T16:36:21;12.40;99.90
45837;DHT22;31548;51.420;-0.040;2022-12-19T16:38:48;12.40;99.90
45837;DHT22;31548;51.420;-0.040;2022-12-19T16:41:25;12.40;99.90
45837;DHT22;31548;51.420;-0.040;2022-12-19T16:43:53;12.40;99.90
45837;DHT22;31548;51.420;-0.040;2022-12-19T16:46:22;12.40;99.90
45837;DHT22;31548;51.420;-0.040;2022-12-19T16:48:49;12.40;99.90
45837;DHT22;31548;51.420;-0.040;2022-12-19T16:51:20;12.50;99.90
45837;DHT22;31548;51.420;-0.040;2022-12-19T16:53:48;12.50;99.90
45837;DHT22;31548;51.420;-0.040;2022-12-19T16:56:47;12.50;99.90
45837;DHT22;31548;51.420;-0.040;2022-12-19T16:59:15;12.40;99.90
45837;DHT22;31548;51.420;-0.040;2022-12-19T17:01:43;12.40;99.90
45837;DHT22;31548;51.420;-0.040;2022-12-19T17:04:13;12.50;99.90
45837;DHT22;31548;51.420;-0.040;2022-12-19T17:06:41;12.50;99.90
45837;DHT22;31548;51.420;-0.040;2022-12-19T17:09:17;12.50;99.90
45837;DHT22;31548;51.420;-0.040;2022-12-19T17:11:47;12.50;99.90
45837;DHT22;31548;51.420;-0.040;2022-12-19T17:14:19;12.50;99.90
45837;DHT22;31548;51.420;-0.040;2022-12-19T17:16:47;12.50;99.90
45837;DHT22;31548;51.420;-0.040;2022-12-19T17:19:41;12.50;99.90
45837;DHT22;31548;51.420;-0.040;2022-12-19T17:22:11;12.50;99.90
45837;DHT22;31548;51.420;-0.040;2022-12-19T17:24:41;12.50;99.90
45837;DHT22;31548;51.420;-0.040;2022-12-19T17:27:09;12.50;99.90
45837;DHT22;31548;51.420;-0.040;2022-12-19T17:29:36;12.50;99.90
45837;DHT22;31548;51.420;-0.040;2022-12-19T17:32:04;12.50;99.90
45837;DHT22;31548;51.420;-0.040;2022-12-19T17:34:35;12.50;99.90
45837;DHT22;31548;51.420;-0.040;2022-12-19T17:37:03;12.50;99.90
45837;DHT22;31548;51.420;-0.040;2022-12-19T17:39:33;12.50;99.90
45837;DHT22;31548;51.420;-0.040;2022-12-19T17:42:19;12.50;99.90
45837;DHT22;31548;51.420;-0.040;2022-12-19T17:44:47;12.50;99.90
45837;DHT22;31548;51.420;-0.040;2022-12-19T17:47:16;12.50;99.90
45837;DHT22;31548;51.420;-0.040;2022-12-19T17:49:46;12.50;99.90
45837;DHT22;31548;51.420;-0.040;2022-12-19T17:52:16;12.50;99.90
45837;DHT22;31548;51.420;-0.040;2022-12-19T17:54:44;12.50;99.90
45837;DHT22;31548;51.420;-0.040;2022-12-19T17:57:15;12.60;99.90
45837;DHT22;31548;51.420;-0.040;2022-12-19T17:59:43;12.50;99.90
45837;DHT22;31548;51.420;-0.040;2022-12-19T18:02:22;12.60;99.90
45837;DHT22;31548;51.420;-0.040;2022-12-19T18:04:50;12.60;99.90
45837;DHT22;31548;51.420;-0.040;2022-12-19T18:07:18;12.50;99.90
45837;DHT22;31548;51.420;-0.040;2022-12-19T18:09:45;12.50;99.90
45837;DHT22;31548;51.420;-0.040;2022-12-19T18:12:13;12.60;99.90
45837;DHT22;31548;51.420;-0.040;2022-12-19T18:14:40;12.60;99.90